createdAt,value
2022-11-18T00:02:26.913Z,98174.41
2022-11-18T00:04:54.878Z,98176.09
2022-11-18T00:07:24.192Z,98174.44
2022-11-18T00:09:52.028Z,98174.44
2022-11-18T00:12:37.346Z,98172.75
2022-11-18T00:15:05.890Z,98167.75
2022-11-18T00:17:34.110Z,98163.59
2022-11-18T00:20:02.019Z,98163.56
2022-11-18T00:22:31.263Z,98154.38
2022-11-18T00:24:59.312Z,98151.88
2022-11-18T00:27:30.857Z,98147.72
2022-11-18T00:29:58.796Z,98144.38
2022-11-18T00:32:26.641Z,98140.16
2022-11-18T00:34:54.506Z,98145.19
2022-11-18T00:37:22.334Z,98150.97
2022-11-18T00:39:51.508Z,98141.84
2022-11-18T00:42:37.093Z,98149.34
2022-11-18T00:45:05.386Z,98153.53
2022-11-18T00:47:33.191Z,98155.22
2022-11-18T00:50:01.108Z,98151.91
2022-11-18T00:52:28.909Z,98134.38
2022-11-18T00:54:58.159Z,98134.38
2022-11-18T00:57:25.987Z,98131.00
2022-11-18T00:59:53.796Z,98143.47
2022-11-18T01:02:21.624Z,98144.22
2022-11-18T01:04:49.475Z,98141.59
2022-11-18T01:07:17.416Z,98149.00
2022-11-18T01:09:45.404Z,98163.94
2022-11-18T01:12:32.276Z,98149.03
2022-11-18T01:15:00.440Z,98159.91
2022-11-18T01:17:31.499Z,98150.00
2022-11-18T01:19:59.862Z,98152.53
2022-11-18T01:22:27.682Z,98158.31
2022-11-18T01:24:55.588Z,98143.38
2022-11-18T01:27:24.791Z,98156.72
2022-11-18T01:29:52.673Z,98155.75
2022-11-18T01:32:25.393Z,98148.31
2022-11-18T01:34:53.669Z,98150.81
2022-11-18T01:37:21.468Z,98159.13
2022-11-18T01:39:49.304Z,98154.97
2022-11-18T01:42:18.906Z,98160.75
2022-11-18T01:45:16.631Z,98137.31
2022-11-18T01:47:49.425Z,98157.25
2022-11-18T01:50:21.167Z,98160.41
2022-11-18T01:52:51.833Z,98145.41
2022-11-18T01:55:25.244Z,98153.78
2022-11-18T01:57:59.430Z,98138.78
2022-11-18T02:00:28.789Z,98145.50
2022-11-18T02:02:58.243Z,98147.38
2022-11-18T02:05:27.260Z,98159.94
2022-11-18T02:07:55.149Z,98156.78
2022-11-18T02:10:25.055Z,98142.59
2022-11-18T02:12:54.574Z,98151.03
2022-11-18T02:15:36.423Z,98148.59
2022-11-18T02:18:13.883Z,98145.31
2022-11-18T02:20:43.735Z,98135.31
2022-11-18T02:23:31.940Z,98141.97
2022-11-18T02:26:17.446Z,98134.50
2022-11-18T02:28:59.817Z,98125.41
2022-11-18T02:31:33.880Z,98124.63
2022-11-18T02:34:11.178Z,98114.66
2022-11-18T02:36:43.834Z,98112.19
2022-11-18T02:39:18.721Z,98103.84
2022-11-18T02:41:49.059Z,98099.69
2022-11-18T02:44:20.613Z,98094.72
2022-11-18T02:46:52.494Z,98088.06
2022-11-18T02:49:23.603Z,98081.41
2022-11-18T02:51:52.888Z,98069.78
2022-11-18T02:54:23.750Z,98059.78
2022-11-18T02:56:53.536Z,98033.13
2022-11-18T02:59:22.859Z,98038.19
2022-11-18T03:01:50.887Z,98034.00
2022-11-18T03:04:19.615Z,98042.31
2022-11-18T03:06:56.645Z,98027.22
2022-11-18T03:09:29.241Z,98051.41
2022-11-18T03:12:08.498Z,98062.22
2022-11-18T03:14:45.912Z,98053.91
2022-11-18T03:17:21.751Z,98059.72
2022-11-18T03:20:12.014Z,98053.88
2022-11-18T03:22:45.507Z,98064.72
2022-11-18T03:25:21.208Z,98072.19
2022-11-18T03:27:55.365Z,98077.19
2022-11-18T03:30:26.180Z,98069.72
2022-11-18T03:32:59.649Z,98071.41
2022-11-18T03:35:32.280Z,98069.78
2022-11-18T03:38:06.493Z,98060.63
2022-11-18T03:40:38.158Z,98059.78
2022-11-18T03:43:13.418Z,98065.63
2022-11-18T03:45:47.962Z,98073.13
2022-11-18T03:48:18.601Z,98069.78
2022-11-18T03:50:51.982Z,98052.28
2022-11-18T03:53:22.025Z,98063.94
2022-11-18T03:55:55.738Z,98069.72
2022-11-18T03:58:28.908Z,98067.19
2022-11-18T04:01:05.157Z,98076.34
2022-11-18T04:03:33.243Z,98073.03
2022-11-18T04:06:16.722Z,98070.53
2022-11-18T04:08:52.203Z,98082.97
2022-11-18T04:11:45.149Z,98081.34
2022-11-18T04:14:15.001Z,98081.41
2022-11-18T04:16:45.551Z,98078.91
2022-11-18T04:19:13.380Z,98084.75
2022-11-18T04:21:41.353Z,98078.91
2022-11-18T04:24:09.868Z,98074.72
2022-11-18T04:26:37.724Z,98083.84
2022-11-18T04:29:05.564Z,98071.34
2022-11-18T04:31:33.469Z,98061.34
2022-11-18T04:34:02.683Z,98062.19
2022-11-18T04:36:30.553Z,98067.09
2022-11-18T04:38:58.381Z,98076.19
2022-11-18T04:41:46.165Z,98071.16
2022-11-18T04:44:14.022Z,98077.78
2022-11-18T04:46:42.816Z,98076.94
2022-11-18T04:49:14.014Z,98073.59
2022-11-18T04:51:42.934Z,98062.69
2022-11-18T04:54:11.678Z,98081.84
2022-11-18T04:56:44.274Z,98080.19
2022-11-18T04:59:17.728Z,98078.53
2022-11-18T05:01:45.790Z,98071.06
2022-11-18T05:04:16.665Z,98061.91
2022-11-18T05:06:44.886Z,98054.44
2022-11-18T05:09:13.272Z,98059.44
2022-11-18T05:11:58.887Z,98056.88
2022-11-18T05:14:27.003Z,98066.84
2022-11-18T05:16:55.390Z,98069.28
2022-11-18T05:19:24.831Z,98060.19
2022-11-18T05:21:52.948Z,98062.69
2022-11-18T05:24:20.892Z,98056.09
2022-11-18T05:26:48.786Z,98063.56
2022-11-18T05:29:16.913Z,98062.78
2022-11-18T05:31:44.831Z,98060.31
2022-11-18T05:34:13.176Z,98061.13
2022-11-18T05:36:42.585Z,98065.31
2022-11-18T05:39:10.721Z,98058.66
2022-11-18T05:41:56.039Z,98058.66
2022-11-18T05:44:24.006Z,98041.09
2022-11-18T05:46:51.847Z,98037.69
2022-11-18T05:49:20.127Z,98029.22
2022-11-18T05:51:49.528Z,98030.78
2022-11-18T05:54:20.031Z,98027.34
2022-11-18T05:56:48.006Z,98019.03
2022-11-18T05:59:16.770Z,98006.53
2022-11-18T06:01:49.301Z,98004.91
2022-11-18T06:04:22.828Z,98003.31
2022-11-18T06:06:55.519Z,98000.88
2022-11-18T06:09:27.716Z,97994.19
2022-11-18T06:11:58.237Z,97982.50
2022-11-18T06:14:31.130Z,97979.97
2022-11-18T06:17:03.921Z,97984.91
2022-11-18T06:19:32.935Z,97994.00
2022-11-18T06:22:02.276Z,97991.50
2022-11-18T06:24:30.301Z,97989.00
2022-11-18T06:26:59.778Z,97982.41
2022-11-18T06:29:28.927Z,97973.31
2022-11-18T06:31:56.957Z,97988.34
2022-11-18T06:34:24.773Z,97985.94
2022-11-18T06:36:52.584Z,97987.69
2022-11-18T06:39:22.467Z,98000.25
2022-11-18T06:41:50.262Z,98006.16
2022-11-18T06:44:17.167Z,97994.59
2022-11-18T06:46:57.276Z,98003.66
2022-11-18T06:49:26.293Z,97992.00
2022-11-18T06:51:54.501Z,98001.94
2022-11-18T06:54:23.756Z,98011.00
2022-11-18T06:56:51.745Z,98022.66
2022-11-18T06:59:23.674Z,98024.41
2022-11-18T07:01:53.248Z,98024.50
2022-11-18T07:04:21.692Z,98026.19
2022-11-18T07:06:49.707Z,98027.06
2022-11-18T07:09:17.982Z,98022.13
2022-11-18T07:11:47.498Z,98027.91
2022-11-18T07:14:15.374Z,98031.25
2022-11-18T07:16:43.550Z,98027.94
2022-11-18T07:19:13.744Z,98023.81
2022-11-18T07:21:43.347Z,98018.03
2022-11-18T07:24:14.750Z,98014.69
2022-11-18T07:26:43.229Z,97992.97
2022-11-18T07:29:12.490Z,98018.06
2022-11-18T07:31:40.861Z,98021.38
2022-11-18T07:34:09.018Z,98021.38
2022-11-18T07:36:36.835Z,98028.09
2022-11-18T07:39:06.195Z,98032.31
2022-11-18T07:41:35.131Z,98034.81
2022-11-18T07:44:04.220Z,98034.88
2022-11-18T07:46:35.109Z,98029.03
2022-11-18T07:49:04.500Z,98034.03
2022-11-18T07:51:34.447Z,98029.91
2022-11-18T07:54:02.975Z,98036.56
2022-11-18T07:56:30.792Z,98037.41
2022-11-18T07:58:58.640Z,98034.09
2022-11-18T08:01:29.132Z,98018.28
2022-11-18T08:03:58.889Z,98014.06
2022-11-18T08:06:26.780Z,98005.78
2022-11-18T08:08:54.575Z,98005.00
2022-11-18T08:11:23.145Z,98004.16
2022-11-18T08:13:51.261Z,98007.53
2022-11-18T08:16:22.355Z,98010.88
2022-11-18T08:18:50.720Z,98006.75
2022-11-18T08:21:22.165Z,98003.44
2022-11-18T08:23:54.639Z,98005.13
2022-11-18T08:26:22.918Z,98016.78
2022-11-18T08:28:51.120Z,98018.44
2022-11-18T08:31:20.967Z,98022.59
2022-11-18T08:33:49.064Z,98008.44
2022-11-18T08:36:18.741Z,98014.25
2022-11-18T08:38:48.098Z,97998.47
2022-11-18T08:41:17.746Z,97991.88
2022-11-18T08:43:45.548Z,97991.88
2022-11-18T08:46:13.393Z,97990.25
2022-11-18T08:48:41.185Z,97982.78
2022-11-18T08:51:10.543Z,97987.78
2022-11-18T08:53:38.436Z,97987.78
2022-11-18T08:56:08.249Z,97990.31
2022-11-18T08:58:36.150Z,97980.34
2022-11-18T09:01:06.619Z,97985.41
2022-11-18T09:03:34.704Z,97989.56
2022-11-18T09:06:07.433Z,97993.75
2022-11-18T09:08:35.264Z,97992.09
2022-11-18T09:11:08.746Z,97992.94
2022-11-18T09:14:14.416Z,97996.25
2022-11-18T09:16:28.187Z,98002.13
2022-11-18T09:18:57.957Z,97994.59
2022-11-18T09:21:27.182Z,97998.75
2022-11-18T09:23:55.624Z,98007.91
2022-11-18T09:26:24.977Z,98012.06
2022-11-18T09:28:55.126Z,98002.91
2022-11-18T09:31:23.067Z,97998.72
2022-11-18T09:33:51.083Z,97992.88
2022-11-18T09:36:20.898Z,97997.88
2022-11-18T09:38:52.960Z,97984.56
2022-11-18T09:41:45.137Z,97969.56
2022-11-18T09:44:23.409Z,97968.78
2022-11-18T09:47:04.007Z,97956.31
2022-11-18T09:49:34.348Z,97953.84
2022-11-18T09:52:05.859Z,97959.66
2022-11-18T09:54:36.852Z,97959.66
2022-11-18T09:57:14.677Z,97962.16
2022-11-18T09:59:43.409Z,97962.97
2022-11-18T10:02:40.486Z,97983.81
2022-11-18T10:05:16.966Z,97972.97
2022-11-18T10:07:50.957Z,97967.94
2022-11-18T10:10:24.920Z,97968.78
2022-11-18T10:13:00.859Z,97962.91
2022-11-18T10:15:37.252Z,97955.44
2022-11-18T10:18:44.943Z,97941.28
2022-11-18T10:21:20.062Z,97939.59
2022-11-18T10:23:54.216Z,97941.28
2022-11-18T10:26:34.866Z,97938.81
2022-11-18T10:29:07.590Z,97946.31
2022-11-18T10:31:37.945Z,97945.47
2022-11-18T10:34:06.088Z,97942.16
2022-11-18T10:36:35.418Z,97948.81
2022-11-18T10:39:14.858Z,97952.97
2022-11-18T10:41:46.679Z,97945.47
2022-11-18T10:44:32.276Z,97952.94
2022-11-18T10:47:26.130Z,97958.75
2022-11-18T10:49:55.518Z,97959.59
2022-11-18T10:52:23.835Z,97973.72
2022-11-18T10:55:19.277Z,97967.03
2022-11-18T10:57:48.134Z,97965.34
2022-11-18T11:00:41.322Z,97971.16
2022-11-18T11:03:32.679Z,97966.91
2022-11-18T11:06:24.510Z,97973.59
2022-11-18T11:08:53.709Z,97963.63
2022-11-18T11:11:28.751Z,97969.47
2022-11-18T11:14:03.053Z,97959.53
2022-11-18T11:16:34.913Z,97957.88
2022-11-18T11:19:05.189Z,97957.03
2022-11-18T11:21:33.083Z,97958.69
2022-11-18T11:24:00.957Z,97956.22
2022-11-18T11:29:38.427Z,97959.53
2022-11-18T11:32:17.172Z,97953.72
2022-11-18T11:34:52.822Z,97958.69
2022-11-18T11:37:30.155Z,97942.00
2022-11-18T11:40:11.664Z,97951.97
2022-11-18T11:42:49.635Z,97966.06
2022-11-18T11:45:25.407Z,97962.75
2022-11-18T11:48:14.846Z,97971.91
2022-11-18T11:51:04.217Z,97962.78
2022-11-18T11:54:02.616Z,97964.44
2022-11-18T11:56:35.454Z,97947.81
2022-11-18T11:59:25.615Z,97967.81
2022-11-18T12:02:00.671Z,97962.81
2022-11-18T12:04:44.006Z,97970.31
2022-11-18T12:07:19.557Z,97973.59
2022-11-18T12:10:10.504Z,97965.22
2022-11-18T12:12:47.071Z,97968.44
2022-11-18T12:15:31.663Z,97963.31
2022-11-18T12:18:12.111Z,97954.19
2022-11-18T12:20:45.810Z,97954.94
2022-11-18T12:23:16.283Z,97953.19
2022-11-18T12:26:04.222Z,97953.19
2022-11-18T12:28:35.586Z,97945.72
2022-11-18T12:31:33.323Z,97941.50
2022-11-18T12:34:04.807Z,97933.19
2022-11-18T12:36:36.283Z,97925.72
2022-11-18T12:39:53.171Z,97913.28
2022-11-18T12:43:10.126Z,97916.63
2022-11-18T12:45:48.832Z,97916.59
2022-11-18T12:48:32.578Z,97913.25
2022-11-18T12:51:02.391Z,97919.91
2022-11-18T12:53:38.784Z,97921.56
2022-11-18T12:56:22.676Z,97915.75
2022-11-18T12:58:52.088Z,97913.28
2022-11-18T13:01:22.645Z,97910.78
2022-11-18T13:03:51.470Z,97896.66
2022-11-18T13:06:26.853Z,97906.63
2022-11-18T13:08:59.624Z,97917.41
2022-11-18T13:11:48.018Z,97919.94
2022-11-18T13:14:36.102Z,97919.91
2022-11-18T13:17:21.903Z,97919.88
2022-11-18T13:19:57.707Z,97929.03
2022-11-18T13:22:43.366Z,97927.34
2022-11-18T13:25:26.166Z,97917.28
2022-11-18T13:28:03.409Z,97943.03
2022-11-18T13:30:34.760Z,97932.22
2022-11-18T13:33:02.671Z,97946.31
2022-11-18T13:35:30.572Z,97945.53
2022-11-18T13:38:00.125Z,97944.56
2022-11-18T13:40:31.477Z,97943.72
2022-11-18T13:42:59.384Z,97948.69
2022-11-18T13:45:29.358Z,97946.19
2022-11-18T13:48:02.661Z,97946.19
2022-11-18T13:50:34.256Z,97937.88
2022-11-18T13:53:10.613Z,97937.06
2022-11-18T13:55:46.572Z,97940.41
2022-11-18T13:58:30.370Z,97946.13
2022-11-18T14:01:00.658Z,97938.63
2022-11-18T14:03:33.030Z,97940.28
2022-11-18T14:06:02.396Z,97937.75
2022-11-18T14:08:32.748Z,97944.38
2022-11-18T14:11:02.570Z,97942.66
2022-11-18T14:13:32.301Z,97941.00
2022-11-18T14:16:02.226Z,97943.47
2022-11-18T14:18:33.578Z,97942.66
2022-11-18T14:21:02.996Z,97933.47
2022-11-18T14:23:34.001Z,97938.50
2022-11-18T14:26:06.015Z,97935.16
2022-11-18T14:28:36.860Z,97923.44
2022-11-18T14:31:08.391Z,97932.56
2022-11-18T14:33:37.316Z,97938.34
2022-11-18T14:36:12.789Z,97944.94
2022-11-18T14:41:50.550Z,97954.03
2022-11-18T14:44:19.220Z,97939.00
2022-11-18T14:46:49.439Z,97952.44
2022-11-18T14:49:19.466Z,97947.34
2022-11-18T14:51:48.251Z,97943.94
2022-11-18T14:54:25.111Z,97949.75
2022-11-18T14:56:58.084Z,97938.13
2022-11-18T14:59:26.022Z,97946.44
2022-11-18T15:01:53.940Z,97941.38
2022-11-18T15:04:22.088Z,97944.66
2022-11-18T15:06:50.359Z,97939.63
2022-11-18T15:09:18.345Z,97951.19
2022-11-18T15:11:46.147Z,97952.88
2022-11-18T15:14:15.572Z,97960.31
2022-11-18T15:16:43.637Z,97956.09
2022-11-18T15:19:15.818Z,97956.06
2022-11-18T15:21:43.710Z,97970.09
2022-11-18T15:24:11.577Z,97965.94
2022-11-18T15:26:42.053Z,97981.66
2022-11-18T15:29:17.778Z,97972.53
2022-11-18T15:31:45.740Z,97980.00
2022-11-18T15:34:14.221Z,97974.16
2022-11-18T15:36:42.030Z,97973.31
2022-11-18T15:39:11.206Z,97980.72
2022-11-18T15:41:40.871Z,97964.81
2022-11-18T15:44:11.600Z,97974.84
2022-11-18T15:46:41.028Z,97984.03
2022-11-18T15:49:14.090Z,97979.81
2022-11-18T15:51:42.178Z,97987.22
2022-11-18T15:54:10.051Z,97988.88
2022-11-18T15:56:39.840Z,97993.81
2022-11-18T15:59:10.391Z,97988.00
2022-11-18T16:01:41.139Z,97982.94
2022-11-18T16:04:10.917Z,97990.28
2022-11-18T16:06:39.618Z,97998.56
2022-11-18T16:09:08.313Z,98006.03
2022-11-18T16:11:53.872Z,98001.84
2022-11-18T16:14:23.355Z,98003.44
2022-11-18T16:16:54.649Z,98005.09
2022-11-18T16:19:24.824Z,98004.25
2022-11-18T16:21:54.324Z,97996.75
2022-11-18T16:24:23.817Z,98002.56
2022-11-18T16:26:51.699Z,98009.16
2022-11-18T16:29:20.753Z,97999.16
2022-11-18T16:31:52.377Z,98005.81
2022-11-18T16:34:23.508Z,98006.59
2022-11-18T16:36:53.485Z,98020.72
2022-11-18T16:39:25.103Z,98019.78
2022-11-18T16:41:54.582Z,98018.88
2022-11-18T16:44:23.213Z,98019.47
2022-11-18T16:46:52.937Z,98019.47
2022-11-18T16:49:24.247Z,98006.97
2022-11-18T16:51:53.848Z,98028.75
2022-11-18T16:54:23.798Z,98015.28
2022-11-18T16:56:53.171Z,98033.72
2022-11-18T16:59:22.583Z,98041.97
2022-11-18T17:01:51.414Z,98043.56
2022-11-18T17:04:20.815Z,98044.38
2022-11-18T17:06:50.036Z,98041.84
2022-11-18T17:09:19.754Z,98038.53
2022-11-18T17:11:48.510Z,98048.41
2022-11-18T17:14:16.497Z,98045.06
2022-11-18T17:16:44.657Z,98055.06
2022-11-18T17:19:15.100Z,98045.09
2022-11-18T17:21:43.824Z,98051.72
2022-11-18T17:24:17.562Z,98047.56
2022-11-18T17:26:46.462Z,98056.50
2022-11-18T17:29:15.166Z,98058.13
2022-11-18T17:31:43.227Z,98062.03
2022-11-18T17:34:11.971Z,98078.63
2022-11-18T17:36:40.491Z,98059.13
2022-11-18T17:39:10.719Z,98064.97
2022-11-18T17:41:58.008Z,98081.53
2022-11-18T17:44:26.303Z,98067.28
2022-11-18T17:46:54.211Z,98088.81
2022-11-18T17:49:22.381Z,98093.69
2022-11-18T17:51:51.580Z,98102.63
2022-11-18T17:54:20.074Z,98108.34
2022-11-18T17:56:49.958Z,98106.63
2022-11-18T17:59:18.340Z,98098.28
2022-11-18T18:01:46.794Z,98114.03
2022-11-18T18:04:20.359Z,98112.31
2022-11-18T18:06:51.100Z,98109.66
2022-11-18T18:09:20.750Z,98104.50
2022-11-18T18:11:51.198Z,98127.00
2022-11-18T18:14:19.159Z,98126.94
2022-11-18T18:16:48.842Z,98135.94
2022-11-18T18:19:19.153Z,98132.50
2022-11-18T18:21:47.092Z,98140.53
2022-11-18T18:24:17.237Z,98133.31
2022-11-18T18:26:45.406Z,98141.63
2022-11-18T18:29:14.902Z,98142.34
2022-11-18T18:31:42.889Z,98150.63
2022-11-18T18:34:10.804Z,98155.41
2022-11-18T18:36:39.082Z,98175.25
2022-11-18T18:39:07.021Z,98171.19
2022-11-18T18:41:34.912Z,98175.16
2022-11-18T18:44:02.798Z,98180.84
2022-11-18T18:46:34.218Z,98186.56
2022-11-18T18:49:04.709Z,98189.75
2022-11-18T18:51:36.390Z,98188.16
2022-11-18T18:54:05.314Z,98202.94
2022-11-18T18:56:33.772Z,98204.44
2022-11-18T18:59:01.915Z,98202.50
2022-11-18T19:01:29.852Z,98212.28
2022-11-18T19:04:01.314Z,98213.00
2022-11-18T19:09:19.152Z,98218.66
2022-11-18T19:12:04.518Z,98225.22
2022-11-18T19:14:35.013Z,98234.25
2022-11-18T19:17:09.500Z,98235.03
2022-11-18T19:19:57.886Z,98235.78
2022-11-18T19:22:26.399Z,98256.41
2022-11-18T19:24:54.690Z,98271.22
2022-11-18T19:27:23.206Z,98272.66
2022-11-18T19:29:51.075Z,98277.72
2022-11-18T19:32:19.052Z,98277.72
2022-11-18T19:34:48.484Z,98278.47
2022-11-18T19:37:16.352Z,98294.91
2022-11-18T19:39:44.241Z,98285.66
2022-11-18T19:42:12.171Z,98290.56
2022-11-18T19:44:40.585Z,98271.09
2022-11-18T19:47:08.405Z,98300.28
2022-11-18T19:49:36.407Z,98298.59
2022-11-18T19:52:05.538Z,98290.44
2022-11-18T19:54:33.379Z,98297.84
2022-11-18T19:57:03.679Z,98300.19
2022-11-18T19:59:31.566Z,98300.94
2022-11-18T20:01:59.427Z,98300.25
2022-11-18T20:04:27.462Z,98306.81
2022-11-18T20:06:55.287Z,98295.06
2022-11-18T20:09:25.397Z,98299.84
2022-11-18T20:11:53.487Z,98302.22
2022-11-18T20:14:21.543Z,98301.38
2022-11-18T20:16:51.524Z,98301.38
2022-11-18T20:19:19.602Z,98321.16
2022-11-18T20:21:48.799Z,98332.50
2022-11-18T20:24:18.553Z,98325.69
2022-11-18T20:26:48.595Z,98331.34
2022-11-18T20:29:16.740Z,98338.63
2022-11-18T20:31:44.973Z,98342.91
2022-11-18T20:34:14.639Z,98338.66
2022-11-18T20:36:42.818Z,98350.38
2022-11-18T20:39:14.587Z,98362.47
2022-11-18T20:41:42.545Z,98376.41
2022-11-18T20:44:11.698Z,98372.09
2022-11-18T20:46:39.523Z,98373.63
2022-11-18T20:49:07.320Z,98371.88
2022-11-18T20:51:35.144Z,98388.31
2022-11-18T20:54:07.621Z,98390.03
2022-11-18T20:56:35.403Z,98397.41
2022-11-18T20:59:03.290Z,98395.94
2022-11-18T21:01:33.650Z,98395.81
2022-11-18T21:04:03.530Z,98400.97
2022-11-18T21:06:32.988Z,98404.13
2022-11-18T21:09:02.521Z,98410.66
2022-11-18T21:11:31.112Z,98409.19
2022-11-18T21:14:22.851Z,98392.78
2022-11-18T21:16:55.157Z,98406.72
2022-11-18T21:19:23.540Z,98408.31
2022-11-18T21:21:52.410Z,98412.34
2022-11-18T21:24:22.906Z,98426.34
2022-11-18T21:26:54.522Z,98430.25
2022-11-18T21:29:23.772Z,98426.13
2022-11-18T21:31:53.848Z,98435.19
2022-11-18T21:34:22.526Z,98435.97
2022-11-18T21:36:54.591Z,98434.78
2022-11-18T21:39:23.904Z,98439.16
2022-11-18T21:41:55.741Z,98429.16
2022-11-18T21:44:24.416Z,98438.94
2022-11-18T21:46:53.589Z,98446.94
2022-11-18T21:49:22.258Z,98443.50
2022-11-18T21:51:50.466Z,98454.06
2022-11-18T21:54:18.640Z,98449.69
2022-11-18T21:56:46.568Z,98457.22
2022-11-18T21:59:14.388Z,98452.84
2022-11-18T22:01:42.150Z,98467.66
2022-11-18T22:04:31.624Z,98476.47
2022-11-18T22:06:59.470Z,98465.56
2022-11-18T22:09:31.460Z,98471.09
2022-11-18T22:12:02.616Z,98472.59
2022-11-18T22:14:30.448Z,98477.47
2022-11-18T22:16:58.270Z,98490.50
2022-11-18T22:19:27.421Z,98490.50
2022-11-18T22:21:55.186Z,98488.81
2022-11-18T22:24:23.496Z,98494.53
2022-11-18T22:26:51.278Z,98495.22
2022-11-18T22:29:19.336Z,98490.84
2022-11-18T22:31:47.354Z,98510.56
2022-11-18T22:34:15.159Z,98515.50
2022-11-18T22:36:44.515Z,98517.13
2022-11-18T22:39:12.419Z,98512.72
2022-11-18T22:41:57.895Z,98514.53
2022-11-18T22:44:25.922Z,98518.50
2022-11-18T22:46:53.996Z,98530.66
2022-11-18T22:49:22.066Z,98532.34
2022-11-18T22:51:51.556Z,98539.72
2022-11-18T22:57:07.888Z,98546.97
2022-11-18T22:59:35.698Z,98551.13
2022-11-18T23:02:03.556Z,98529.75
2022-11-18T23:04:31.371Z,98559.19
2022-11-18T23:07:00.569Z,98558.41
2022-11-18T23:09:28.494Z,98560.75
2022-11-18T23:12:14.039Z,98572.75
2022-11-18T23:14:41.881Z,98567.00
2022-11-18T23:17:09.735Z,98571.06
2022-11-18T23:19:41.971Z,98565.16
2022-11-18T23:22:11.217Z,98579.34
2022-11-18T23:24:39.034Z,98569.59
2022-11-18T23:27:07.062Z,98565.22
2022-11-18T23:29:34.927Z,98577.06
2022-11-18T23:32:02.806Z,98573.81
2022-11-18T23:34:30.591Z,98568.81
2022-11-18T23:36:58.406Z,98566.22
2022-11-18T23:39:27.643Z,98566.13
2022-11-18T23:41:55.476Z,98557.81
2022-11-18T23:44:43.214Z,98546.13
2022-11-18T23:47:11.070Z,98562.50
2022-11-18T23:49:38.906Z,98563.22
2022-11-18T23:52:06.832Z,98576.13
2022-11-18T23:54:35.988Z,98586.69
2022-11-18T23:57:05.594Z,98588.13
2022-11-18T23:59:34.083Z,98574.88
